KDLP

West Delta 27A Airport

West Delta, Mississippi, USA
METAR KDLP 171015Z AUTO 36027KT 10SM OVC010 M01/M02 A3048 RMK A01
Observed Flight Rules
Jan-17 @ 10:15 UTC (21 minutes ago) Marginal Visual Flight Rules
Wind Visibility Clouds
360° at 27 knots 10 miles
  • Overcast at 1,000' AGL
Temperatures Readings
Current -1°C / 30°F
Dewpoint -2°C / 28°F
Humidity 93%
Altimeter 30.48" Hg
Pressure 1032 hPa
Elevation 36
METAR KDLP 171015Z AUTO 36027KT 10SM OVC010 M01/M02 A3048 RMK A01
Observed Flight Rules
Jan-17 @ 10:15 UTC
(21 minutes ago)
MVFR
Wind Visibility
360° at 27 knots 10 miles
Clouds
  • Overcast at 1,000' AGL
Temperature Dewpoint
-1°C / 30°F -2°C / 28°F
Humidity Altimeter Pressure
93% 30.48" Hg 1032 hPa